Time;durP1;ratioP1;P1;durP2;ratioP2;P2;SDS_P1;SDS_P2;PMS_P1;PMS_P2;Temp;Humidity;BMP_temperature;BMP_pressure;BME280_temperature;BME280_humidity;BME280_pressure;Samples;Min_cycle;Max_cycle;Signal;HPM_P1;HPM_P2
2023/07/09 00:01:52;;;;;;;14.55;2.45;;;16.80;99.90;;;;;;5031519;28;20192;-74
2023/07/09 00:04:18;;;;;;;13.40;3.03;;;16.80;99.90;;;;;;5031559;28;20170;-73
2023/07/09 00:06:45;;;;;;;13.55;1.98;;;16.80;99.90;;;;;;5031629;28;20652;-73
2023/07/09 00:09:16;;;;;;;10.23;1.92;;;16.80;99.90;;;;;;5031434;28;20188;-73
2023/07/09 00:11:43;;;;;;;12.07;2.00;;;16.80;99.90;;;;;;5031129;28;20213;-72
2023/07/09 00:14:10;;;;;;;11.52;2.03;;;16.80;99.90;;;;;;5031452;28;20166;-74
2023/07/09 00:16:36;;;;;;;13.85;2.30;;;16.80;99.90;;;;;;5031378;28;20257;-72
2023/07/09 00:19:03;;;;;;;10.15;1.85;;;16.80;99.90;;;;;;5030115;28;20705;-72
2023/07/09 00:21:33;;;;;;;18.15;2.58;;;16.80;99.90;;;;;;5031251;28;20176;-71
2023/07/09 00:24:04;;;;;;;13.38;3.10;;;16.80;99.90;;;;;;5031205;28;20229;-72
2023/07/09 00:26:31;;;;;;;14.30;2.42;;;16.80;99.90;;;;;;5031240;28;20193;-72
2023/07/09 00:28:56;;;;;;;10.48;2.40;;;16.80;99.90;;;;;;5031011;28;20228;-73
2023/07/09 00:31:23;;;;;;;13.80;2.95;;;16.80;99.90;;;;;;5031068;28;20202;-74
2023/07/09 00:33:49;;;;;;;11.32;2.08;;;16.70;99.90;;;;;;5031153;28;20166;-73
2023/07/09 00:36:20;;;;;;;17.25;2.47;;;16.70;99.90;;;;;;5030733;28;20170;-72
2023/07/09 00:38:47;;;;;;;11.90;2.20;;;16.80;99.90;;;;;;5031044;28;20174;-73
2023/07/09 00:41:17;;;;;;;12.85;2.08;;;16.70;99.90;;;;;;5030564;28;20347;-70
2023/07/09 00:43:44;;;;;;;12.07;2.05;;;16.70;99.90;;;;;;5030974;28;20253;-72
2023/07/09 00:46:18;;;;;;;18.52;2.20;;;16.50;99.90;;;;;;5030675;28;20184;-72
2023/07/09 00:48:50;;;;;;;16.75;2.72;;;16.60;99.90;;;;;;5030673;28;20264;-73
2023/07/09 00:51:20;;;;;;;15.38;2.03;;;16.60;99.90;;;;;;5025981;28;20269;-72
2023/07/09 00:53:49;;;;;;;14.05;2.20;;;16.60;99.90;;;;;;5030847;28;20166;-72
2023/07/09 00:56:20;;;;;;;12.20;2.55;;;16.50;99.90;;;;;;5030414;28;20667;-74
2023/07/09 00:58:47;;;;;;;11.20;2.25;;;16.50;99.90;;;;;;5030749;28;20245;-72
2023/07/09 01:01:18;;;;;;;13.10;2.25;;;16.50;99.90;;;;;;5031068;28;20189;-74
2023/07/09 01:03:57;;;;;;;12.38;2.35;;;16.50;99.90;;;;;;5030756;28;20168;-73
2023/07/09 01:06:35;;;;;;;11.68;2.05;;;16.40;99.90;;;;;;5030691;28;20264;-73
2023/07/09 01:09:03;;;;;;;14.27;2.25;;;16.50;99.90;;;;;;5030876;28;20177;-74
2023/07/09 01:11:30;;;;;;;16.92;2.05;;;16.50;99.90;;;;;;5030513;28;20656;-74
2023/07/09 01:13:58;;;;;;;21.88;2.58;;;16.50;99.90;;;;;;5030866;28;20182;-74
2023/07/09 01:16:27;;;;;;;11.32;2.25;;;16.30;99.90;;;;;;5030626;28;20185;-74
2023/07/09 01:18:53;;;;;;;15.90;1.98;;;16.20;99.90;;;;;;5030649;28;20178;-74
2023/07/09 01:21:19;;;;;;;14.50;2.22;;;16.20;99.90;;;;;;5030725;28;20182;-74
2023/07/09 01:23:46;;;;;;;13.05;2.03;;;16.30;99.90;;;;;;5029305;28;20189;-74
2023/07/09 01:26:14;;;;;;;13.02;2.17;;;16.30;99.90;;;;;;5030629;28;20647;-74
2023/07/09 01:28:43;;;;;;;15.15;2.28;;;16.20;99.90;;;;;;5030476;28;20177;-75
2023/07/09 01:31:11;;;;;;;6.95;1.73;;;16.20;99.90;;;;;;5030445;28;20645;-79
2023/07/09 01:33:39;;;;;;;18.83;2.30;;;16.30;99.90;;;;;;5030486;28;20261;-79
2023/07/09 01:36:06;;;;;;;14.38;2.30;;;16.00;99.90;;;;;;5030509;28;20181;-78
2023/07/09 01:38:33;;;;;;;16.75;2.25;;;;;;;;;;5030679;28;20201;-77
2023/07/09 01:40:59;;;;;;;13.98;2.40;;;16.20;99.90;;;;;;5030609;28;20659;-77
2023/07/09 01:43:26;;;;;;;11.60;2.45;;;16.10;99.90;;;;;;5030551;28;20178;-76
2023/07/09 01:45:52;;;;;;;14.88;2.47;;;16.30;99.90;;;;;;5030481;28;20178;-76
2023/07/09 01:48:20;;;;;;;11.48;2.05;;;16.20;99.90;;;;;;5030436;28;20173;-76
2023/07/09 01:50:49;;;;;;;12.15;1.90;;;16.40;99.90;;;;;;5030355;28;20648;-77
2023/07/09 01:53:17;;;;;;;13.15;2.38;;;16.30;99.90;;;;;;5029847;28;20224;-77
2023/07/09 01:55:44;;;;;;;15.75;2.63;;;16.20;99.90;;;;;;5030189;28;20207;-77
2023/07/09 01:58:10;;;;;;;15.05;2.65;;;16.20;99.90;;;;;;5029977;28;20182;-77
2023/07/09 02:00:37;;;;;;;13.98;2.38;;;;;;;;;;5030142;28;20256;-71
2023/07/09 02:03:04;;;;;;;16.45;2.63;;;17.80;99.90;;;;;;5030320;28;20223;-74
2023/07/09 02:05:35;;;;;;;14.60;2.42;;;16.40;99.90;;;;;;5030339;28;20186;-74
2023/07/09 02:08:00;;;;;;;12.10;2.53;;;16.30;99.90;;;;;;5031890;28;20170;-74
2023/07/09 02:10:26;;;;;;;14.65;2.85;;;;;;;;;;5033749;28;20652;-74
2023/07/09 02:12:52;;;;;;;12.25;2.25;;;;;;;;;;5033534;28;20229;-75
2023/07/09 02:15:18;;;;;;;14.40;2.55;;;;;;;;;;5033723;28;20600;-75
2023/07/09 02:17:44;;;;;;;10.63;2.20;;;16.20;99.90;;;;;;5033428;28;20182;-77
2023/07/09 02:20:11;;;;;;;11.48;2.15;;;16.30;99.90;;;;;;5033878;28;20185;-77
2023/07/09 02:22:37;;;;;;;14.80;2.90;;;16.30;99.90;;;;;;5033455;28;20256;-77
2023/07/09 02:25:04;;;;;;;14.55;2.67;;;16.50;99.90;;;;;;5033500;28;20220;-76
2023/07/09 02:27:29;;;;;;;13.90;2.13;;;16.40;99.90;;;;;;5033431;28;20165;-72
2023/07/09 02:29:55;;;;;;;12.82;2.20;;;;;;;;;;5033385;28;20655;-70
2023/07/09 02:32:23;;;;;;;16.77;2.53;;;16.40;99.90;;;;;;5033438;28;20339;-74
2023/07/09 02:34:52;;;;;;;16.10;2.20;;;;;;;;;;5033406;28;20197;-74
2023/07/09 02:37:20;;;;;;;15.68;2.92;;;16.70;99.90;;;;;;5033467;28;20170;-74
2023/07/09 02:39:45;;;;;;;15.77;2.92;;;16.30;99.90;;;;;;5033231;28;20174;-75
2023/07/09 02:42:13;;;;;;;15.45;2.22;;;16.20;99.90;;;;;;5033159;28;20177;-75
2023/07/09 02:44:41;;;;;;;14.55;2.28;;;16.20;99.90;;;;;;5033182;28;20625;-74
2023/07/09 02:47:07;;;;;;;13.95;2.72;;;16.30;99.90;;;;;;5033148;28;20244;-72
2023/07/09 02:49:32;;;;;;;11.18;2.38;;;17.10;99.90;;;;;;5033114;28;20571;-73
2023/07/09 02:51:58;;;;;;;22.05;3.00;;;;;;;;;;5033064;28;20221;-72
2023/07/09 02:54:24;;;;;;;16.67;2.63;;;16.30;99.90;;;;;;5032753;28;20684;-72
2023/07/09 02:56:50;;;;;;;14.40;2.50;;;16.30;99.90;;;;;;5032675;28;20166;-71
2023/07/09 02:59:15;;;;;;;11.07;2.50;;;16.10;99.90;;;;;;5029990;28;20235;-70
2023/07/09 03:01:41;;;;;;;18.02;2.60;;;18.50;99.90;;;;;;5027693;28;20178;-73
2023/07/09 03:04:08;;;;;;;15.90;2.70;;;16.30;99.90;;;;;;5032466;28;20355;-73
2023/07/09 03:06:35;;;;;;;11.38;2.60;;;16.30;99.90;;;;;;5032261;28;20186;-73
2023/07/09 03:09:01;;;;;;;11.95;2.40;;;16.20;99.90;;;;;;5032542;28;20174;-72
2023/07/09 03:11:30;;;;;;;15.93;2.53;;;16.30;99.90;;;;;;5031642;28;20213;-72
2023/07/09 03:13:55;;;;;;;11.20;2.28;;;16.20;99.90;;;;;;5032596;28;20177;-73
2023/07/09 03:16:21;;;;;;;14.77;2.72;;;16.20;99.90;;;;;;5033997;28;20243;-72
2023/07/09 03:18:47;;;;;;;15.50;2.58;;;16.20;99.90;;;;;;5021474;28;20207;-74
2023/07/09 03:21:12;;;;;;;12.60;2.08;;;16.10;99.90;;;;;;5032491;28;20190;-73
2023/07/09 03:23:38;;;;;;;17.90;2.70;;;;;;;;;;5032413;28;20257;-73
2023/07/09 03:26:05;;;;;;;14.80;2.63;;;;;;;;;;5031995;28;20170;-73
2023/07/09 03:28:32;;;;;;;10.32;2.10;;;15.90;99.90;;;;;;5032054;28;20231;-73
2023/07/09 03:30:58;;;;;;;12.75;2.13;;;16.10;99.90;;;;;;5031859;28;20170;-74
2023/07/09 03:33:24;;;;;;;12.90;2.13;;;16.00;99.90;;;;;;5031792;28;20572;-74
2023/07/09 03:35:51;;;;;;;12.05;2.28;;;16.00;99.90;;;;;;5025644;28;20652;-74
2023/07/09 03:38:17;;;;;;;12.00;2.25;;;16.00;99.90;;;;;;5032138;28;20174;-74
2023/07/09 03:40:43;;;;;;;11.82;2.60;;;16.00;99.90;;;;;;5031541;28;20170;-74
2023/07/09 03:43:09;;;;;;;15.07;2.00;;;16.00;99.90;;;;;;5031831;28;20192;-73
2023/07/09 03:45:36;;;;;;;14.65;2.50;;;16.10;99.90;;;;;;5031853;28;20170;-74
2023/07/09 03:48:03;;;;;;;15.15;2.80;;;16.10;99.90;;;;;;5032063;28;20180;-73
2023/07/09 03:50:29;;;;;;;14.73;2.65;;;16.10;99.90;;;;;;5031825;28;20240;-71
2023/07/09 03:52:55;;;;;;;16.42;2.30;;;16.10;99.90;;;;;;5031549;28;20213;-70
2023/07/09 03:55:20;;;;;;;14.77;2.95;;;16.10;99.90;;;;;;5030373;28;20811;-73
2023/07/09 03:57:46;;;;;;;11.00;2.40;;;16.10;99.90;;;;;;5031669;28;20694;-74
2023/07/09 04:00:12;;;;;;;8.57;1.98;;;16.10;99.90;;;;;;5029898;28;20676;-73
2023/07/09 04:02:39;;;;;;;20.40;2.90;;;16.10;99.90;;;;;;5031011;28;20197;-73
2023/07/09 04:05:08;;;;;;;15.07;2.67;;;16.10;99.90;;;;;;5031315;28;20244;-73
2023/07/09 04:07:34;;;;;;;10.98;2.47;;;16.10;99.90;;;;;;5031471;28;20228;-73
2023/07/09 04:09:59;;;;;;;13.98;2.20;;;16.20;99.90;;;;;;5031521;28;20193;-78
2023/07/09 04:12:25;;;;;;;16.15;2.60;;;;;;;;;;5031249;28;20590;-78
2023/07/09 04:14:51;;;;;;;10.00;2.25;;;16.10;99.90;;;;;;5031556;28;20232;-77
2023/07/09 04:17:17;;;;;;;10.65;2.08;;;16.10;99.90;;;;;;5031488;28;20174;-76
2023/07/09 04:19:42;;;;;;;12.02;2.17;;;16.00;99.90;;;;;;5031568;28;20165;-77
2023/07/09 04:22:10;;;;;;;11.93;2.53;;;16.00;99.90;;;;;;5031445;28;20173;-76
2023/07/09 04:24:35;;;;;;;14.75;2.50;;;16.10;99.90;;;;;;5030057;28;20169;-77
2023/07/09 04:27:02;;;;;;;14.18;2.58;;;;;;;;;;5031409;28;20596;-77
2023/07/09 04:29:29;;;;;;;15.48;3.13;;;16.10;99.90;;;;;;5031005;28;20182;-77
2023/07/09 04:31:54;;;;;;;13.25;2.17;;;16.00;99.90;;;;;;5030814;28;20275;-77
2023/07/09 04:34:20;;;;;;;12.38;3.00;;;16.10;99.90;;;;;;5031107;28;20203;-77
2023/07/09 04:36:46;;;;;;;12.90;2.65;;;16.10;99.90;;;;;;5031173;28;20209;-77
2023/07/09 04:39:11;;;;;;;13.52;2.50;;;16.10;99.90;;;;;;5031168;28;20640;-78
2023/07/09 04:41:37;;;;;;;16.95;3.75;;;16.10;99.90;;;;;;5031246;28;20174;-77
2023/07/09 04:44:02;;;;;;;19.33;3.17;;;16.10;99.90;;;;;;5030992;28;20166;-76
2023/07/09 04:46:28;;;;;;;19.00;3.00;;;16.10;99.90;;;;;;5031034;28;20269;-76
2023/07/09 04:48:55;;;;;;;12.95;3.28;;;16.10;99.90;;;;;;5031037;28;20590;-73
2023/07/09 04:51:21;;;;;;;17.70;3.00;;;16.10;99.90;;;;;;5028973;28;20185;-73
2023/07/09 04:53:46;;;;;;;21.60;3.75;;;15.20;99.90;;;;;;5030573;28;20192;-73
2023/07/09 04:56:12;;;;;;;16.05;3.35;;;16.20;99.90;;;;;;5030925;28;20166;-75
2023/07/09 04:58:38;;;;;;;17.10;3.10;;;16.10;99.90;;;;;;5029712;28;20209;-74
2023/07/09 05:01:04;;;;;;;17.13;2.90;;;16.10;99.90;;;;;;5030894;28;20209;-72
2023/07/09 05:03:29;;;;;;;14.23;2.85;;;16.20;99.90;;;;;;5030860;28;20181;-73
2023/07/09 05:05:56;;;;;;;14.25;3.00;;;17.30;99.90;;;;;;5030872;28;20170;-75
2023/07/09 05:08:22;;;;;;;14.77;3.25;;;16.20;99.90;;;;;;5030362;28;20637;-75
2023/07/09 05:10:51;;;;;;;12.45;3.05;;;16.30;99.90;;;;;;5030730;28;20201;-76
2023/07/09 05:13:17;;;;;;;16.23;3.20;;;16.30;99.90;;;;;;5030051;28;20226;-74
2023/07/09 05:15:45;;;;;;;10.73;2.42;;;16.40;99.90;;;;;;5030501;28;20182;-74
2023/07/09 05:18:15;;;;;;;14.55;2.55;;;16.30;99.90;;;;;;5030728;28;20272;-74
2023/07/09 05:20:41;;;;;;;12.30;3.28;;;16.10;99.90;;;;;;5028894;28;20637;-75
2023/07/09 05:23:09;;;;;;;13.80;3.05;;;16.40;99.90;;;;;;5030736;28;20185;-77
2023/07/09 05:25:35;;;;;;;16.25;3.10;;;16.30;99.90;;;;;;5030754;28;20184;-78
2023/07/09 05:28:01;;;;;;;20.45;3.22;;;16.40;99.90;;;;;;5030899;28;20170;-79
2023/07/09 05:30:27;;;;;;;21.65;3.03;;;;;;;;;;5030755;28;20543;-77
2023/07/09 05:32:57;;;;;;;16.35;2.97;;;16.50;99.90;;;;;;5030469;28;20227;-77
2023/07/09 05:35:25;;;;;;;16.48;2.97;;;16.50;99.90;;;;;;5030556;28;20719;-77
2023/07/09 05:37:51;;;;;;;18.27;3.03;;;16.50;99.90;;;;;;5030604;28;20204;-78
2023/07/09 05:40:16;;;;;;;21.05;3.13;;;16.50;99.90;;;;;;5030661;28;20172;-78
2023/07/09 05:42:42;;;;;;;10.43;2.40;;;16.50;99.90;;;;;;5032924;28;20178;-76
2023/07/09 05:45:08;;;;;;;18.90;3.03;;;16.60;99.90;;;;;;5034132;28;20578;-76
2023/07/09 05:47:34;;;;;;;17.27;2.72;;;16.50;99.90;;;;;;5034287;28;20185;-76
2023/07/09 05:49:59;;;;;;;12.77;3.42;;;16.60;99.90;;;;;;5034371;28;20212;-76
2023/07/09 05:52:25;;;;;;;16.83;3.20;;;16.70;99.90;;;;;;5034378;28;20224;-76
2023/07/09 05:54:52;;;;;;;15.23;3.20;;;16.70;99.90;;;;;;5038868;28;20540;-76
2023/07/09 05:57:18;;;;;;;15.18;2.63;;;16.70;99.90;;;;;;5038474;28;20247;-76
2023/07/09 05:59:44;;;;;;;19.17;3.17;;;16.70;99.90;;;;;;5034703;28;20170;-76
2023/07/09 06:02:21;;;;;;;18.27;3.05;;;16.70;99.90;;;;;;5034165;28;20184;-71
2023/07/09 06:04:49;;;;;;;13.63;2.63;;;16.50;99.90;;;;;;5034014;28;20170;-73
2023/07/09 06:07:15;;;;;;;21.98;2.75;;;16.80;99.90;;;;;;5033858;28;20177;-72
2023/07/09 06:09:41;;;;;;;15.52;3.22;;;16.60;99.90;;;;;;5033867;28;20248;-72
2023/07/09 06:12:07;;;;;;;12.15;3.10;;;16.50;99.90;;;;;;5033724;28;20308;-73
2023/07/09 06:14:33;;;;;;;19.63;2.80;;;16.50;99.90;;;;;;5033683;28;20180;-71
2023/07/09 06:17:00;;;;;;;13.15;2.83;;;16.70;99.90;;;;;;5033571;28;20182;-72
2023/07/09 06:19:26;;;;;;;13.93;3.05;;;16.70;99.90;;;;;;5033571;28;20177;-71
2023/07/09 06:21:52;;;;;;;20.60;3.85;;;16.80;99.90;;;;;;5033001;28;20256;-72
2023/07/09 06:24:17;;;;;;;15.75;2.58;;;16.80;99.90;;;;;;5033500;28;20178;-72
2023/07/09 06:26:43;;;;;;;17.52;2.83;;;16.70;99.90;;;;;;5033541;28;20170;-73
2023/07/09 06:29:09;;;;;;;14.63;2.90;;;16.70;99.90;;;;;;5033218;28;20644;-71
2023/07/09 06:31:35;;;;;;;18.52;3.45;;;16.90;99.90;;;;;;5033317;28;20205;-71
2023/07/09 06:34:02;;;;;;;20.30;3.10;;;;;;;;;;5033371;28;20193;-76
2023/07/09 06:36:27;;;;;;;20.70;2.83;;;16.80;99.90;;;;;;5033316;28;20166;-75
2023/07/09 06:38:53;;;;;;;16.73;2.92;;;16.70;99.90;;;;;;5033292;28;20591;-74
2023/07/09 06:41:23;;;;;;;15.23;2.67;;;;;;;;;;5032161;28;20181;-76
2023/07/09 06:43:49;;;;;;;18.38;3.00;;;;;;;;;;5032544;28;20192;-71
2023/07/09 06:46:15;;;;;;;18.83;2.97;;;;;;;;;;5032943;28;20166;-72
2023/07/09 06:48:41;;;;;;;23.75;3.10;;;;;;;;;;5033198;28;20166;-74
2023/07/09 06:51:07;;;;;;;16.45;3.03;;;17.30;99.90;;;;;;5033213;28;20253;-74
2023/07/09 06:53:33;;;;;;;16.15;2.90;;;;;;;;;;5032270;28;20238;-77
2023/07/09 06:55:59;;;;;;;22.63;3.15;;;;;;;;;;5031339;28;20173;-78
2023/07/09 06:58:27;;;;;;;17.40;3.30;;;17.30;99.90;;;;;;5033003;28;20174;-81
2023/07/09 07:00:54;;;;;;;19.35;2.78;;;;;;;;;;5033171;28;20637;-81
2023/07/09 07:03:21;;;;;;;19.80;3.13;;;16.70;99.90;;;;;;5032459;28;20170;-80
2023/07/09 07:05:53;;;;;;;14.18;2.97;;;17.60;99.90;;;;;;5033088;28;20247;-80
2023/07/09 07:08:22;;;;;;;16.70;2.47;;;17.70;99.90;;;;;;5032691;28;20162;-79
2023/07/09 07:10:49;;;;;;;20.58;2.90;;;17.80;99.90;;;;;;5032757;28;20170;-81
2023/07/09 07:13:15;;;;;;;13.88;3.15;;;17.70;99.90;;;;;;5032465;28;20237;-79
2023/07/09 07:15:41;;;;;;;18.33;2.72;;;17.50;99.90;;;;;;5032580;28;20177;-78
2023/07/09 07:18:07;;;;;;;17.80;3.28;;;17.80;99.90;;;;;;5032615;28;20174;-80
2023/07/09 07:20:34;;;;;;;16.13;2.42;;;17.80;99.90;;;;;;5032634;28;20170;-79
2023/07/09 07:22:59;;;;;;;17.75;3.05;;;17.80;99.90;;;;;;5032749;28;20181;-81
2023/07/09 07:25:25;;;;;;;19.55;3.28;;;17.70;99.90;;;;;;5032875;28;20785;-79
2023/07/09 07:27:51;;;;;;;16.35;2.75;;;17.80;99.90;;;;;;5032583;28;20316;-78
2023/07/09 07:30:17;;;;;;;21.50;3.20;;;17.90;99.90;;;;;;5032704;28;20174;-77
2023/07/09 07:32:48;;;;;;;15.63;2.95;;;18.10;99.90;;;;;;5032405;28;20213;-76
2023/07/09 07:35:15;;;;;;;15.63;3.10;;;18.20;99.90;;;;;;5032765;28;20166;-73
2023/07/09 07:37:41;;;;;;;20.05;3.92;;;18.30;99.90;;;;;;5032303;28;20212;-73
2023/07/09 07:40:08;;;;;;;16.75;2.60;;;18.30;99.90;;;;;;5031480;28;20256;-76
2023/07/09 07:42:33;;;;;;;15.48;2.90;;;18.30;99.90;;;;;;5032188;28;20174;-78
2023/07/09 07:44:59;;;;;;;18.58;3.25;;;18.40;99.90;;;;;;5032069;28;20170;-76
2023/07/09 07:47:27;;;;;;;14.32;2.50;;;18.60;99.90;;;;;;5031981;28;20170;-75
2023/07/09 07:49:53;;;;;;;13.80;2.75;;;18.60;99.90;;;;;;5032156;28;20177;-74
2023/07/09 07:52:18;;;;;;;15.68;3.13;;;18.50;99.90;;;;;;5031879;28;20248;-76
2023/07/09 07:54:44;;;;;;;17.48;2.42;;;18.50;99.90;;;;;;5031543;28;20868;-76
2023/07/09 07:57:10;;;;;;;18.23;2.88;;;18.40;99.90;;;;;;5032097;28;20178;-78
2023/07/09 07:59:36;;;;;;;18.58;3.08;;;19.00;99.90;;;;;;5031640;28;20660;-75
2023/07/09 08:02:03;;;;;;;17.73;2.55;;;18.80;99.90;;;;;;5031644;28;20178;-76
2023/07/09 08:04:28;;;;;;;20.88;3.20;;;18.70;99.90;;;;;;5031210;28;20162;-72
2023/07/09 08:06:54;;;;;;;15.60;2.50;;;18.80;99.90;;;;;;5031262;28;20193;-77
2023/07/09 08:09:20;;;;;;;10.63;1.92;;;18.90;99.90;;;;;;5031118;28;20269;-76
2023/07/09 08:11:46;;;;;;;19.05;2.30;;;19.00;99.90;;;;;;5031374;28;20232;-77
2023/07/09 08:14:12;;;;;;;10.85;2.00;;;;;;;;;;5030976;28;20716;-78
2023/07/09 08:16:38;;;;;;;14.00;2.22;;;19.20;99.90;;;;;;5031331;28;20253;-77
2023/07/09 08:19:05;;;;;;;11.05;2.33;;;19.40;99.90;;;;;;5031539;28;20185;-74
2023/07/09 08:21:31;;;;;;;11.60;1.90;;;19.50;99.90;;;;;;5031307;28;20167;-74
2023/07/09 08:23:56;;;;;;;11.00;2.00;;;19.40;99.90;;;;;;5031174;28;20524;-74
2023/07/09 08:26:24;;;;;;;7.38;2.15;;;19.40;99.90;;;;;;5030943;28;20174;-75
2023/07/09 08:28:50;;;;;;;8.63;1.88;;;19.20;99.90;;;;;;5031346;28;20177;-72
2023/07/09 08:31:16;;;;;;;8.65;1.85;;;19.20;99.90;;;;;;5034290;28;20200;-75
2023/07/09 08:33:41;;;;;;;14.82;2.42;;;19.30;99.90;;;;;;5033928;28;20222;-76
2023/07/09 08:36:07;;;;;;;13.70;2.83;;;;;;;;;;5034192;28;20193;-75
2023/07/09 08:38:33;;;;;;;18.40;2.60;;;19.50;99.90;;;;;;5032559;28;20170;-79
2023/07/09 08:41:09;;;;;;;14.32;2.58;;;19.40;99.90;;;;;;5030769;28;20625;-79
2023/07/09 08:43:44;;;;;;;9.95;2.15;;;19.50;99.90;;;;;;5031032;28;20181;-82
2023/07/09 08:46:19;;;;;;;15.45;2.65;;;19.40;99.90;;;;;;5031603;28;20178;-81
2023/07/09 08:48:49;;;;;;;10.00;1.65;;;19.40;81.30;;;;;;5030897;28;20174;-81
2023/07/09 08:51:36;;;;;;;14.82;1.80;;;19.30;1.00;;;;;;5028718;28;20182;-78
2023/07/09 08:54:02;;;;;;;8.40;1.73;;;19.40;1.00;;;;;;5023879;28;20221;-77
2023/07/09 08:56:33;;;;;;;12.25;1.85;;;19.50;31.10;;;;;;5031213;28;20573;-77
2023/07/09 08:59:01;;;;;;;16.38;2.00;;;19.60;75.60;;;;;;5028983;28;20641;-77
2023/07/09 09:01:51;;;;;;;9.90;2.08;;;19.90;1.00;;;;;;5020303;28;20165;-79
2023/07/09 09:04:24;;;;;;;7.95;1.85;;;19.90;1.00;;;;;;5032001;28;20224;-80
2023/07/09 09:07:15;;;;;;;13.68;2.53;;;19.90;99.90;;;;;;5013147;28;20182;-80
2023/07/09 09:09:47;;;;;;;10.57;1.50;;;19.50;15.00;;;;;;5030591;28;20170;-81
2023/07/09 09:12:21;;;;;;;5.60;1.20;;;19.90;1.00;;;;;;5030587;28;20889;-80
2023/07/09 09:14:58;;;;;;;8.10;1.90;;;19.90;1.00;;;;;;5031296;28;20205;-81
2023/07/09 09:17:28;;;;;;;10.65;2.30;;;19.50;99.90;;;;;;5027851;28;20550;-81
2023/07/09 09:20:09;;;;;;;15.55;2.28;;;20.00;1.00;;;;;;5015611;28;20641;-79
2023/07/09 09:22:48;;;;;;;18.27;2.80;;;20.00;99.90;;;;;;5015295;28;20178;-81
2023/07/09 09:25:31;;;;;;;6.72;1.80;;;20.40;99.90;;;;;;5017432;28;20181;-79
2023/07/09 09:27:56;;;;;;;15.57;1.95;;;20.60;5.90;;;;;;5034644;28;20286;-80
2023/07/09 09:30:24;;;;;;;9.77;1.60;;;21.00;57.60;;;;;;5035092;28;20715;-79
2023/07/09 09:33:07;;;;;;;10.82;2.33;;;21.20;1.00;;;;;;5034687;28;20205;-78
2023/07/09 09:35:39;;;;;;;9.65;1.77;;;21.50;17.20;;;;;;5034633;28;20224;-80
2023/07/09 09:38:25;;;;;;;12.50;1.75;;;21.60;99.90;;;;;;5034662;28;20628;-77
2023/07/09 09:40:50;;;;;;;19.02;3.63;;;21.60;1.00;;;;;;5034267;28;20189;-80
2023/07/09 09:43:20;;;;;;;10.75;2.05;;;21.00;1.00;;;;;;5034001;28;20312;-78
2023/07/09 09:45:48;;;;;;;13.35;2.20;;;20.60;1.00;;;;;;5033068;28;20652;-79
2023/07/09 09:48:20;;;;;;;11.68;1.85;;;20.70;1.00;;;;;;5034158;28;20193;-80
2023/07/09 09:50:47;;;;;;;8.00;1.65;;;20.60;25.50;;;;;;5034222;28;20170;-80
2023/07/09 09:53:24;;;;;;;14.38;2.38;;;21.00;1.00;;;;;;5034176;28;20217;-77
2023/07/09 09:55:52;;;;;;;14.43;2.20;;;20.90;1.00;;;;;;5014429;28;20237;-80
2023/07/09 09:58:19;;;;;;;14.90;2.45;;;21.10;99.90;;;;;;5015218;28;20178;-78
2023/07/09 10:00:52;;;;;;;11.40;2.05;;;21.00;99.90;;;;;;5015614;28;20171;-80
2023/07/09 10:03:19;;;;;;;10.32;1.65;;;20.90;1.00;;;;;;5015182;28;20178;-80
2023/07/09 10:05:52;;;;;;;9.43;1.35;;;20.50;99.90;;;;;;5014680;28;20257;-78
2023/07/09 10:08:39;;;;;;;10.18;1.75;;;20.50;1.00;;;;;;5014673;28;20174;-81
2023/07/09 10:11:19;;;;;;;9.20;2.20;;;20.40;29.80;;;;;;5014378;28;20167;-81
2023/07/09 10:13:46;;;;;;;14.00;1.92;;;20.30;99.90;;;;;;5019331;28;20218;-79
2023/07/09 10:16:19;;;;;;;13.60;2.15;;;20.40;99.90;;;;;;5017794;28;20170;-80
2023/07/09 10:19:31;;;;;;;14.98;2.13;;;20.10;1.00;;;;;;5020055;28;20225;-78
2023/07/09 10:22:18;;;;;;;10.27;1.95;;;19.90;1.00;;;;;;4955671;29;20717;-82
2023/07/09 10:24:55;;;;;;;10.07;2.25;;;20.10;1.00;;;;;;5009828;28;20210;-81
2023/07/09 10:27:36;;;;;;;18.42;2.50;;;20.10;1.00;;;;;;5013756;28;20209;-80
2023/07/09 10:30:18;;;;;;;14.98;2.60;;;20.20;1.00;;;;;;5013462;28;20293;-80
2023/07/09 10:33:03;;;;;;;17.30;2.13;;;20.20;1.00;;;;;;5013605;28;20218;-79
2023/07/09 10:35:52;;;;;;;14.07;2.42;;;20.00;92.70;;;;;;5013852;28;20174;-79
2023/07/09 10:38:34;;;;;;;12.73;2.22;;;19.70;99.90;;;;;;5013841;28;20171;-82
2023/07/09 10:41:03;;;;;;;9.98;2.90;;;19.80;99.90;;;;;;5013789;28;20693;-82
2023/07/09 10:43:41;;;;;;;9.02;1.77;;;20.10;99.90;;;;;;5013708;28;20170;-81
2023/07/09 10:46:15;;;;;;;7.20;2.05;;;20.00;99.90;;;;;;5013461;28;20258;-80
2023/07/09 10:48:45;;;;;;;11.80;2.22;;;20.00;99.90;;;;;;5013579;28;20209;-82
2023/07/09 10:51:17;;;;;;;11.30;2.17;;;20.20;99.90;;;;;;5013701;28;20167;-82
2023/07/09 10:53:46;;;;;;;17.60;2.80;;;20.40;99.90;;;;;;5013690;28;20209;-80
2023/07/09 10:56:24;;;;;;;11.77;2.05;;;20.70;1.00;;;;;;5013534;28;20677;-81
2023/07/09 10:59:14;;;;;;;7.93;2.30;;;20.70;1.00;;;;;;5013727;28;20657;-80
2023/07/09 11:01:48;;;;;;;10.30;2.20;;;20.80;1.00;;;;;;5013378;28;20225;-81
2023/07/09 11:04:38;;;;;;;13.30;2.17;;;20.90;1.00;;;;;;5013573;28;20173;-80
2023/07/09 11:07:12;;;;;;;9.65;2.08;;;20.70;1.00;;;;;;5013484;28;20185;-80
2023/07/09 11:09:45;;;;;;;9.35;2.45;;;20.60;1.00;;;;;;5013393;28;20672;-80
2023/07/09 11:12:29;;;;;;;16.05;2.33;;;20.70;99.90;;;;;;5023606;28;20214;-79
2023/07/09 11:14:57;;;;;;;13.93;2.33;;;20.80;99.90;;;;;;5037695;28;20181;-78
2023/07/09 11:17:23;;;;;;;12.15;2.45;;;21.20;60.40;;;;;;5022876;28;20162;-80
2023/07/09 11:19:59;;;;;;;14.90;2.90;;;21.40;1.00;;;;;;5019861;28;20174;-80
2023/07/09 11:22:37;;;;;;;10.80;2.20;;;21.60;1.00;;;;;;5017614;28;20174;-80
2023/07/09 11:25:15;;;;;;;9.20;1.95;;;21.50;1.00;;;;;;5014291;28;20177;-81
2023/07/09 11:28:02;;;;;;;12.57;1.73;;;21.50;1.00;;;;;;5015026;28;20176;-82
2023/07/09 11:30:29;;;;;;;7.22;2.03;;;21.70;99.90;;;;;;5014715;28;20167;-82
2023/07/09 11:33:01;;;;;;;11.25;2.75;;;21.60;99.90;;;;;;5013345;28;20284;-82
2023/07/09 11:35:29;;;;;;;10.00;1.63;;;21.60;1.00;;;;;;5014234;28;20182;-80
2023/07/09 11:37:58;;;;;;;7.60;1.80;;;22.10;1.00;;;;;;5014189;28;20700;-79
2023/07/09 11:40:24;;;;;;;12.10;2.17;;;22.30;1.00;;;;;;5013631;28;20709;-80
2023/07/09 11:42:58;;;;;;;9.35;1.50;;;22.90;99.90;;;;;;5014089;28;20255;-80
2023/07/09 11:45:32;;;;;;;8.23;2.17;;;24.40;1.00;;;;;;5014276;28;20668;-80
2023/07/09 11:48:25;;;;;;;12.02;1.88;;;22.80;1.00;;;;;;5014009;28;20182;-81
2023/07/09 11:50:52;;;;;;;8.20;1.80;;;22.60;99.90;;;;;;5013501;28;20631;-79
2023/07/09 11:53:27;;;;;;;8.63;2.08;;;22.90;99.90;;;;;;5013893;28;20207;-81
2023/07/09 11:55:53;;;;;;;5.63;1.25;;;23.00;1.00;;;;;;5013057;28;20715;-80
2023/07/09 11:58:19;;;;;;;7.72;1.70;;;22.60;1.00;;;;;;5013555;28;20178;-80
2023/07/09 12:01:01;;;;;;;7.63;1.88;;;22.70;1.00;;;;;;5013494;28;20182;-77
2023/07/09 12:03:35;;;;;;;6.30;1.38;;;22.50;1.00;;;;;;5014619;28;20186;-79
2023/07/09 12:06:25;;;;;;;5.82;1.83;;;23.20;1.00;;;;;;5014014;28;20206;-80
2023/07/09 12:08:52;;;;;;;9.55;1.25;;;22.70;99.90;;;;;;5005831;28;20182;-82
2023/07/09 12:11:29;;;;;;;8.45;1.50;;;22.60;1.00;;;;;;5012154;28;20171;-80
2023/07/09 12:14:03;;;;;;;8.82;2.13;;;22.40;1.00;;;;;;5030376;28;20237;-82
2023/07/09 12:16:32;;;;;;;8.27;1.98;;;22.30;1.00;;;;;;5032115;28;20181;-82
2023/07/09 12:18:58;;;;;;;8.68;1.75;;;;;;;;;;5031811;28;20178;-81
2023/07/09 12:21:26;;;;;;;6.80;1.73;;;22.50;1.00;;;;;;5031889;28;20170;-81
2023/07/09 12:23:53;;;;;;;8.07;2.33;;;22.60;1.00;;;;;;5032006;28;20204;-83
2023/07/09 12:26:20;;;;;;;8.50;1.77;;;22.30;50.80;;;;;;5032059;28;20201;-82
2023/07/09 12:28:54;;;;;;;6.78;1.73;;;22.60;99.90;;;;;;5033716;28;20170;-78
2023/07/09 12:31:26;;;;;;;6.50;1.85;;;22.70;1.00;;;;;;5029727;28;20182;-82
2023/07/09 12:33:57;;;;;;;8.43;1.80;;;22.70;99.90;;;;;;5031242;28;20236;-82
2023/07/09 12:36:24;;;;;;;12.38;2.47;;;22.60;1.00;;;;;;5031538;28;20201;-78
2023/07/09 12:39:02;;;;;;;8.30;1.55;;;22.30;99.90;;;;;;5031674;28;20645;-81
2023/07/09 12:42:00;;;;;;;10.50;1.70;;;22.40;1.00;;;;;;5040213;28;20173;-79
2023/07/09 12:44:27;;;;;;;9.35;1.80;;;22.30;1.00;;;;;;5035352;28;20186;-78
2023/07/09 12:46:54;;;;;;;7.75;1.90;;;22.50;99.90;;;;;;5045535;28;20174;-80
2023/07/09 12:49:36;;;;;;;8.88;1.65;;;22.90;1.00;;;;;;5033936;28;20206;-78
2023/07/09 12:52:08;;;;;;;13.80;2.15;;;23.60;1.00;;;;;;5036811;28;20197;-75
2023/07/09 12:54:34;;;;;;;10.35;2.03;;;;;;;;;;5040927;28;20179;-82
2023/07/09 12:57:00;;;;;;;10.32;1.90;;;;;;;;;;5021667;28;20634;-81
2023/07/09 12:59:28;;;;;;;11.90;1.83;;;23.50;1.00;;;;;;5025400;28;20528;-81